»·PEaware :: N245LG KBFL-KMHV

N245LG :: KBFL-KMHV

FLIGHT INFORMATION

Flight Status: Arrived
Operator: Privately registered:
United States
More flights under this callsign
Pilot: Erik A. (17503)
Aircraft: CESSNA 172 SKYHAWK
(C172)
More flights by this aircraft type
Origin: KBFL Meadows
United States
Destination: KMHV Mojave
United States
More flights between these airports :: More routes between these airports
Route:
File this flight plan on PilotEdge
Remarks: CAT-06
Altitude:
(Current/Filed)
5,500ft
Speed:
(Current/Filed)
100kts
Departed: 05-Jan-18 11:30 AM
Arrived: 05-Jan-18 12:02 PM
Distance/Time
Traveled:
50nm/0:31
Distance/Time
To Go:
Arrived

Flight Plot

Page will automatically refresh every two minutes.


Map Options




Map Legend


Flown Route
Filed Route
Departure Airport
Arrival Airport
Navaid (VOR, NDB)
Fix

Horizontal Profiles

Position Reports

Time Latitude Longitude Heading Altitude Ground
Speed
05-Jan-18 11:15 35.435703 -119.052446 178 510ft 0kts
05-Jan-18 11:16 35.435703 -119.052446 178 510ft 0kts
05-Jan-18 11:17 35.435703 -119.052446 178 510ft 0kts
05-Jan-18 11:18 35.435703 -119.052446 178 510ft 0kts
05-Jan-18 11:19 35.435703 -119.052446 178 510ft 0kts
05-Jan-18 11:20 35.435701 -119.052446 178 510ft 0kts
05-Jan-18 11:21 35.435698 -119.052446 178 510ft 0kts
05-Jan-18 11:22 35.435696 -119.052446 178 510ft 0kts
05-Jan-18 11:23 35.435693 -119.052446 178 510ft 0kts
05-Jan-18 11:24 35.435691 -119.052446 178 510ft 0kts
05-Jan-18 11:25 35.435688 -119.052446 178 510ft 0kts
05-Jan-18 11:26 35.435685 -119.052446 178 510ft 0kts
05-Jan-18 11:27 35.435579 -119.052533 257 510ft 2kts
05-Jan-18 11:28 35.434429 -119.054604 167 510ft 9kts
05-Jan-18 11:29 35.431484 -119.051095 135 510ft 17kts
05-Jan-18 11:30 35.428297 -119.047236 134 510ft 16kts
05-Jan-18 11:31 35.425705 -119.044826 233 510ft 0kts
05-Jan-18 11:32 35.425701 -119.044833 233 510ft 0kts
05-Jan-18 11:33 35.425699 -119.044836 233 510ft 0kts
05-Jan-18 11:34 35.425697 -119.044839 233 510ft 0kts
05-Jan-18 11:35 35.425575 -119.045120 244 510ft 8kts
05-Jan-18 11:36 35.435374 -119.057450 316 759ft 83kts
05-Jan-18 11:37 35.454388 -119.070021 43 1463ft 84kts
05-Jan-18 11:38 35.451630 -119.045862 134 2284ft 86kts
05-Jan-18 11:39 35.430523 -119.025588 155 3077ft 106kts
05-Jan-18 11:40 35.405802 -119.005386 145 3782ft 108kts
05-Jan-18 11:41 35.377803 -118.993788 171 4432ft 104kts
05-Jan-18 11:42 35.350989 -118.978867 151 4989ft 105kts
05-Jan-18 11:43 35.327663 -118.956644 131 5498ft 111kts
05-Jan-18 11:44 35.304316 -118.927399 141 5498ft 117kts
05-Jan-18 11:45 35.280704 -118.899465 130 5348ft 115kts
05-Jan-18 11:46 35.264110 -118.867791 126 5458ft 112kts
05-Jan-18 11:47 35.249798 -118.833670 113 5531ft 115kts
05-Jan-18 11:48 35.232696 -118.801382 126 5705ft 113kts
05-Jan-18 11:49 35.226961 -118.763534 79 5851ft 124kts
05-Jan-18 11:50 35.234982 -118.722312 73 5837ft 123kts
05-Jan-18 11:51 35.243157 -118.683067 82 5839ft 118kts
05-Jan-18 11:52 35.242416 -118.643744 98 5969ft 108kts
05-Jan-18 11:53 35.235027 -118.608789 114 6257ft 106kts
05-Jan-18 11:54 35.222421 -118.576345 122 6534ft 104kts
05-Jan-18 11:55 35.207051 -118.545969 125 6768ft 105kts
05-Jan-18 11:56 35.188054 -118.518349 136 6835ft 106kts
05-Jan-18 11:57 35.169384 -118.489766 123 6946ft 107kts
05-Jan-18 11:58 35.155120 -118.457051 124 7015ft 108kts
05-Jan-18 11:59 35.139498 -118.425421 123 7058ft 108kts
05-Jan-18 12:00 35.123670 -118.393788 120 7288ft 110kts
05-Jan-18 12:01 35.111502 -118.358990 113 7650ft 113kts
05-Jan-18 12:02 35.102936 -118.320852 104 7722ft 118kts
05-Jan-18 12:03 35.095808 -118.279386 103 6866ft 127kts
05-Jan-18 12:04 35.088710 -118.238174 104 5805ft 121kts
05-Jan-18 12:05 35.081322 -118.196573 106 4529ft 124kts
05-Jan-18 12:06 35.073241 -118.156973 104 3764ft 121kts
05-Jan-18 12:07 35.061507 -118.131545 215 3332ft 66kts
05-Jan-18 12:08 35.059177 -118.149608 274 2794ft 24kts
05-Jan-18 12:09 35.058390 -118.149748 134 2794ft 2kts
05-Jan-18 12:10 35.057148 -118.151205 133 2794ft 8kts
05-Jan-18 12:11 35.057123 -118.150992 86 2794ft 0kts
05-Jan-18 12:12 35.057123 -118.150990 86 2794ft 0kts
05-Jan-18 12:13 35.057124 -118.150988 86 2794ft 0kts
05-Jan-18 12:14 35.057124 -118.150986 86 2794ft 0kts
05-Jan-18 12:15 35.057124 -118.150984 86 2794ft 0kts

Navigation Log

Ident Type
1. KBFL Airport
2. KMHV Airport